Time;durP1;ratioP1;P1;durP2;ratioP2;P2;SDS_P1;SDS_P2;PMS_P1;PMS_P2;Temp;Humidity;BMP_temperature;BMP_pressure;BME280_temperature;BME280_humidity;BME280_pressure;Samples;Min_cycle;Max_cycle;Signal;HPM_P1;HPM_P2
2024/03/22 00:02:08;;;;;;;20.05;15.07;;;10.10;99.90;;;;;;5015803;28;20091;-71
2024/03/22 00:04:36;;;;;;;23.88;20.13;;;10.10;99.90;;;;;;5031485;28;20037;-70
2024/03/22 00:07:03;;;;;;;23.48;14.60;;;10.10;99.90;;;;;;5015199;28;20037;-71
2024/03/22 00:09:29;;;;;;;30.08;22.70;;;10.10;99.90;;;;;;5031597;28;20124;-72
2024/03/22 00:11:55;;;;;;;26.83;17.27;;;10.10;99.90;;;;;;5031327;28;20474;-71
2024/03/22 00:14:21;;;;;;;22.90;13.55;;;10.10;99.90;;;;;;5031576;28;20039;-71
2024/03/22 00:16:48;;;;;;;26.23;17.08;;;10.20;99.90;;;;;;5031240;28;20049;-71
2024/03/22 00:19:14;;;;;;;18.08;12.70;;;10.20;99.90;;;;;;5014988;28;20042;-70
2024/03/22 00:21:40;;;;;;;28.33;15.15;;;10.20;99.90;;;;;;5014672;28;20056;-71
2024/03/22 00:24:06;;;;;;;25.73;16.95;;;10.20;99.90;;;;;;5031353;28;20391;-71
2024/03/22 00:26:33;;;;;;;26.35;15.50;;;10.20;99.90;;;;;;5031392;28;20060;-71
2024/03/22 00:28:59;;;;;;;29.45;18.30;;;10.20;99.90;;;;;;5031137;28;20041;-71
2024/03/22 00:31:25;;;;;;;33.88;17.30;;;10.20;99.90;;;;;;4998352;28;20057;-71
2024/03/22 00:33:51;;;;;;;30.73;16.52;;;10.30;99.90;;;;;;4998483;28;20036;-70
2024/03/22 00:36:17;;;;;;;25.85;14.57;;;10.30;99.90;;;;;;4982208;28;20494;-71
2024/03/22 00:38:43;;;;;;;33.05;20.92;;;10.30;99.90;;;;;;4998231;28;20061;-71
2024/03/22 00:41:09;;;;;;;27.92;19.77;;;10.30;99.90;;;;;;5031200;28;20040;-71
2024/03/22 00:43:35;;;;;;;34.80;19.98;;;10.40;99.90;;;;;;5014508;28;20478;-71
2024/03/22 00:46:02;;;;;;;27.85;16.40;;;10.40;99.90;;;;;;5030895;28;20064;-70
2024/03/22 00:48:29;;;;;;;33.30;24.67;;;10.40;99.90;;;;;;4998317;28;20442;-71
2024/03/22 00:50:55;;;;;;;32.40;22.65;;;10.40;99.90;;;;;;5014317;28;20045;-71
2024/03/22 00:53:21;;;;;;;30.88;18.00;;;10.30;99.90;;;;;;5014371;28;20091;-71
2024/03/22 00:55:50;;;;;;;29.25;16.50;;;10.30;99.90;;;;;;5030792;28;20048;-71
2024/03/22 00:58:19;;;;;;;29.50;16.33;;;10.30;99.90;;;;;;5031109;28;20034;-71
2024/03/22 01:00:46;;;;;;;32.75;23.80;;;10.40;99.90;;;;;;5030879;28;20042;-71
2024/03/22 01:03:12;;;;;;;30.30;17.42;;;10.30;99.90;;;;;;5031034;28;20046;-71
2024/03/22 01:05:40;;;;;;;32.92;23.98;;;10.30;99.90;;;;;;5014393;28;20057;-72
2024/03/22 01:08:06;;;;;;;32.25;19.45;;;10.30;99.90;;;;;;5030993;28;20491;-71
2024/03/22 01:10:33;;;;;;;31.70;20.17;;;10.40;99.90;;;;;;5014672;28;20545;-71
2024/03/22 01:13:00;;;;;;;37.78;27.38;;;10.30;99.90;;;;;;5014144;28;20046;-71
2024/03/22 01:15:26;;;;;;;37.08;24.10;;;10.40;99.90;;;;;;5014245;28;20041;-71
2024/03/22 01:17:53;;;;;;;33.42;19.38;;;10.40;99.90;;;;;;5030627;28;20441;-71
2024/03/22 01:20:19;;;;;;;25.38;16.05;;;10.40;99.90;;;;;;5047384;28;20502;-71
2024/03/22 01:22:45;;;;;;;33.95;23.88;;;10.40;99.90;;;;;;5030439;28;20064;-71
2024/03/22 01:25:11;;;;;;;36.95;23.70;;;10.40;99.90;;;;;;5014288;28;20045;-70
2024/03/22 01:27:37;;;;;;;44.97;32.97;;;10.40;99.90;;;;;;5014363;28;20049;-71
2024/03/22 01:30:03;;;;;;;38.72;23.75;;;10.40;99.90;;;;;;5014040;28;20038;-70
2024/03/22 01:32:30;;;;;;;39.70;23.52;;;10.40;99.90;;;;;;5030643;28;20072;-71
2024/03/22 01:34:57;;;;;;;46.70;26.67;;;10.50;99.90;;;;;;5013893;28;20418;-71
2024/03/22 01:37:23;;;;;;;51.75;36.67;;;10.40;99.90;;;;;;5014531;28;20049;-71
2024/03/22 01:39:48;;;;;;;31.85;20.25;;;10.60;99.90;;;;;;5030474;28;20084;-71
2024/03/22 01:42:14;;;;;;;31.65;20.40;;;10.50;99.90;;;;;;5014180;28;20056;-71
2024/03/22 01:44:41;;;;;;;35.30;19.85;;;10.50;99.90;;;;;;5014354;28;20041;-71
2024/03/22 01:47:07;;;;;;;36.40;20.92;;;10.60;99.90;;;;;;4997840;28;20046;-70
2024/03/22 01:49:33;;;;;;;35.88;21.40;;;10.60;99.90;;;;;;5014024;28;20057;-71
2024/03/22 01:52:00;;;;;;;36.70;23.75;;;10.60;99.90;;;;;;5030322;28;20048;-70
2024/03/22 01:54:26;;;;;;;34.58;18.27;;;10.60;99.90;;;;;;5014972;28;20061;-71
2024/03/22 01:56:52;;;;;;;39.83;26.02;;;10.60;99.90;;;;;;5033807;28;20045;-70
2024/03/22 01:59:19;;;;;;;42.67;25.45;;;10.70;99.90;;;;;;5017593;28;20037;-71
2024/03/22 02:01:45;;;;;;;40.40;23.75;;;10.70;99.90;;;;;;5017449;28;20103;-71
2024/03/22 02:04:11;;;;;;;35.65;22.58;;;10.70;99.90;;;;;;5000882;28;20050;-72
2024/03/22 02:06:37;;;;;;;39.13;22.27;;;10.70;99.90;;;;;;5033848;28;20490;-71
2024/03/22 02:09:04;;;;;;;36.88;24.00;;;10.80;99.90;;;;;;5017237;28;20517;-71
2024/03/22 02:11:30;;;;;;;36.78;22.75;;;10.80;99.90;;;;;;5033701;28;20474;-70
2024/03/22 02:13:56;;;;;;;40.03;23.80;;;10.80;99.90;;;;;;5033531;28;20525;-71
2024/03/22 02:16:23;;;;;;;53.17;36.10;;;10.80;99.90;;;;;;5000976;28;20048;-70
2024/03/22 02:18:49;;;;;;;46.15;26.15;;;10.80;99.90;;;;;;5000803;28;20424;-71
2024/03/22 02:21:15;;;;;;;34.63;20.35;;;10.80;99.90;;;;;;5017356;28;20037;-70
2024/03/22 02:23:41;;;;;;;31.52;16.98;;;10.80;99.90;;;;;;5033637;28;20526;-71
2024/03/22 02:26:08;;;;;;;38.47;25.17;;;10.80;99.90;;;;;;5033227;28;20068;-71
2024/03/22 02:28:35;;;;;;;35.13;21.85;;;10.80;99.90;;;;;;5033479;28;20034;-71
2024/03/22 02:31:03;;;;;;;47.42;31.38;;;10.90;99.90;;;;;;5016626;28;20046;-71
2024/03/22 02:33:29;;;;;;;41.90;25.95;;;10.80;99.90;;;;;;5000269;28;20371;-71
2024/03/22 02:35:56;;;;;;;47.13;31.00;;;10.80;99.90;;;;;;5016734;28;20046;-71
2024/03/22 02:38:22;;;;;;;47.20;34.53;;;10.80;99.90;;;;;;5000358;28;20056;-71
2024/03/22 02:40:49;;;;;;;38.03;22.02;;;10.80;99.90;;;;;;5033228;28;20380;-71
2024/03/22 02:43:17;;;;;;;40.45;22.65;;;10.90;99.90;;;;;;5016321;28;20073;-71
2024/03/22 02:45:43;;;;;;;34.35;20.15;;;10.90;99.90;;;;;;5016697;28;20049;-71
2024/03/22 02:48:09;;;;;;;56.00;35.97;;;10.90;99.90;;;;;;5032827;28;20046;-71
2024/03/22 02:50:38;;;;;;;37.13;19.20;;;10.90;99.90;;;;;;5016548;28;20064;-71
2024/03/22 02:53:05;;;;;;;52.30;36.60;;;10.90;99.90;;;;;;5016177;28;20049;-71
2024/03/22 02:55:37;;;;;;;38.88;23.15;;;10.90;99.90;;;;;;5033035;28;20045;-71
2024/03/22 02:58:03;;;;;;;39.92;22.75;;;10.90;99.90;;;;;;5016202;28;20064;-70
2024/03/22 03:00:29;;;;;;;42.00;28.33;;;11.00;99.90;;;;;;5032809;28;20084;-71
2024/03/22 03:02:55;;;;;;;32.22;18.50;;;10.90;99.90;;;;;;4999966;28;20073;-71
2024/03/22 03:05:23;;;;;;;47.05;27.23;;;11.00;99.90;;;;;;5016136;28;20045;-71
2024/03/22 03:07:50;;;;;;;44.33;27.67;;;11.00;99.90;;;;;;5032778;28;20092;-71
2024/03/22 03:10:16;;;;;;;49.30;29.63;;;11.00;99.90;;;;;;5015808;28;20119;-71
2024/03/22 03:12:42;;;;;;;43.53;32.38;;;11.00;99.90;;;;;;5016011;28;20510;-71
2024/03/22 03:15:09;;;;;;;38.45;20.73;;;11.00;99.90;;;;;;4983319;28;20046;-71
2024/03/22 03:17:34;;;;;;;44.55;31.17;;;11.00;99.90;;;;;;4999781;28;20045;-71
2024/03/22 03:20:01;;;;;;;49.83;36.63;;;10.90;99.90;;;;;;5015658;28;20041;-70
2024/03/22 03:22:27;;;;;;;42.65;21.77;;;10.90;99.90;;;;;;5032345;28;20129;-70
2024/03/22 03:24:52;;;;;;;40.28;26.98;;;11.00;99.90;;;;;;5032305;28;20045;-70
2024/03/22 03:27:18;;;;;;;41.35;23.27;;;11.00;99.90;;;;;;5015487;28;20049;-70
2024/03/22 03:29:44;;;;;;;40.47;23.48;;;11.00;99.90;;;;;;5015903;28;20053;-70
2024/03/22 03:32:10;;;;;;;39.17;24.60;;;11.00;99.90;;;;;;5015373;28;20057;-71
2024/03/22 03:34:37;;;;;;;47.58;26.45;;;11.00;99.90;;;;;;5032260;28;20087;-72
2024/03/22 03:37:03;;;;;;;45.47;24.00;;;11.00;99.90;;;;;;4999224;28;20483;-71
2024/03/22 03:39:31;;;;;;;39.88;22.98;;;11.00;99.90;;;;;;4999360;28;20065;-71
2024/03/22 03:41:57;;;;;;;38.70;23.45;;;11.00;99.90;;;;;;5032109;28;20041;-71
2024/03/22 03:44:23;;;;;;;46.72;30.60;;;11.00;99.90;;;;;;5031810;28;20505;-71
2024/03/22 03:46:49;;;;;;;42.33;26.55;;;10.90;99.90;;;;;;4999211;28;20053;-71
2024/03/22 03:49:15;;;;;;;37.28;26.35;;;10.90;99.90;;;;;;5031666;28;20046;-70
2024/03/22 03:51:41;;;;;;;48.50;29.88;;;10.90;99.90;;;;;;5015255;28;20054;-70
2024/03/22 03:54:07;;;;;;;49.45;27.40;;;10.90;99.90;;;;;;5015090;28;20053;-71
2024/03/22 03:56:33;;;;;;;47.50;31.92;;;10.90;99.90;;;;;;5015455;28;20060;-70
2024/03/22 03:58:59;;;;;;;35.78;24.80;;;10.90;99.90;;;;;;5015408;28;20077;-71
2024/03/22 04:01:25;;;;;;;45.88;27.70;;;10.90;99.90;;;;;;5036008;28;20120;-70
2024/03/22 04:03:51;;;;;;;34.03;18.45;;;10.90;99.90;;;;;;5038179;28;20442;-71
2024/03/22 04:06:17;;;;;;;41.42;23.60;;;10.90;99.90;;;;;;5014212;28;20471;-71
2024/03/22 04:08:43;;;;;;;45.08;24.70;;;10.90;99.90;;;;;;5048068;28;20041;-70
2024/03/22 04:11:11;;;;;;;44.92;24.25;;;10.90;99.90;;;;;;5031396;28;20095;-71
2024/03/22 04:13:37;;;;;;;35.85;20.83;;;10.90;99.90;;;;;;5014994;28;20124;-70
2024/03/22 04:16:04;;;;;;;41.35;27.17;;;10.90;99.90;;;;;;5048196;28;20045;-71
2024/03/22 04:18:31;;;;;;;42.17;24.08;;;10.90;99.90;;;;;;5031271;28;20037;-71
2024/03/22 04:20:59;;;;;;;51.15;26.70;;;10.90;99.90;;;;;;4998689;28;20053;-71
2024/03/22 04:23:25;;;;;;;45.00;32.25;;;10.90;99.90;;;;;;5014721;28;20525;-71
2024/03/22 04:25:59;;;;;;;43.47;22.88;;;10.90;99.90;;;;;;5031258;28;20057;-71
2024/03/22 04:28:28;;;;;;;40.00;23.52;;;11.00;99.90;;;;;;5047690;28;20056;-70
2024/03/22 04:31:06;;;;;;;44.05;25.63;;;11.10;99.90;;;;;;5014624;28;20044;-71
2024/03/22 04:33:33;;;;;;;46.83;28.40;;;11.10;99.90;;;;;;5014626;28;20045;-71
2024/03/22 04:36:00;;;;;;;38.20;25.65;;;11.10;99.90;;;;;;4998446;28;20053;-71
2024/03/22 04:38:27;;;;;;;48.75;30.05;;;11.10;99.90;;;;;;5047571;28;20038;-71
2024/03/22 04:40:54;;;;;;;40.67;22.23;;;11.20;99.90;;;;;;4998406;28;20049;-71
2024/03/22 04:43:20;;;;;;;45.13;24.38;;;11.20;99.90;;;;;;5047599;28;20049;-71
2024/03/22 04:45:47;;;;;;;47.95;28.48;;;11.30;99.90;;;;;;5031240;28;20087;-71
2024/03/22 04:48:16;;;;;;;36.90;24.73;;;11.30;99.90;;;;;;5014427;28;20076;-71
2024/03/22 04:50:42;;;;;;;51.78;34.60;;;11.30;99.90;;;;;;5014779;28;20058;-71
2024/03/22 04:53:08;;;;;;;37.25;23.60;;;11.30;99.90;;;;;;5014593;28;20053;-71
2024/03/22 04:55:34;;;;;;;39.92;22.83;;;11.30;99.90;;;;;;4998088;28;20073;-71
2024/03/22 04:58:00;;;;;;;38.85;25.15;;;11.30;99.90;;;;;;5014668;28;20042;-71
2024/03/22 05:00:30;;;;;;;46.58;31.27;;;11.30;99.90;;;;;;5047383;28;20376;-71
2024/03/22 05:02:56;;;;;;;45.08;29.92;;;11.40;99.90;;;;;;5031109;28;20064;-71
2024/03/22 05:05:22;;;;;;;53.50;35.33;;;11.40;99.90;;;;;;5030768;28;20049;-71
2024/03/22 05:07:48;;;;;;;43.72;24.20;;;11.30;99.90;;;;;;5014370;28;20069;-71
2024/03/22 05:10:16;;;;;;;40.63;25.45;;;11.40;99.90;;;;;;5030627;28;20410;-71
2024/03/22 05:12:42;;;;;;;49.75;35.35;;;11.40;99.90;;;;;;5014381;28;20034;-71
2024/03/22 05:15:08;;;;;;;38.78;25.60;;;11.40;99.90;;;;;;5014447;28;20033;-71
2024/03/22 05:17:34;;;;;;;42.47;25.42;;;11.40;99.90;;;;;;4981840;28;20046;-71
2024/03/22 05:20:01;;;;;;;40.95;23.65;;;11.30;99.90;;;;;;5047410;28;20037;-71
2024/03/22 05:22:28;;;;;;;42.47;25.88;;;11.30;99.90;;;;;;5014145;28;20037;-70
2024/03/22 05:24:54;;;;;;;39.97;22.45;;;11.30;99.90;;;;;;5014461;28;20046;-71
2024/03/22 05:27:20;;;;;;;40.42;21.88;;;11.30;99.90;;;;;;5030450;28;20072;-71
2024/03/22 05:29:46;;;;;;;35.17;20.15;;;11.30;99.90;;;;;;5048912;28;20044;-71
2024/03/22 05:32:13;;;;;;;51.80;34.63;;;11.20;99.90;;;;;;5034222;28;20394;-71
2024/03/22 05:34:39;;;;;;;45.47;28.25;;;11.10;99.90;;;;;;4985283;28;20045;-71
2024/03/22 05:37:05;;;;;;;44.10;24.42;;;11.10;99.90;;;;;;5034435;28;20049;-71
2024/03/22 05:39:31;;;;;;;46.30;27.75;;;11.00;99.90;;;;;;5034340;28;20038;-71
2024/03/22 05:41:57;;;;;;;44.00;23.45;;;11.00;99.90;;;;;;5051027;28;20398;-71
2024/03/22 05:44:23;;;;;;;47.92;30.45;;;11.00;99.90;;;;;;5017755;28;20051;-72
2024/03/22 05:46:49;;;;;;;44.08;23.40;;;10.90;99.90;;;;;;5034058;28;20099;-71
2024/03/22 05:49:16;;;;;;;45.70;31.60;;;10.90;99.90;;;;;;5017808;28;20053;-71
2024/03/22 05:51:42;;;;;;;41.50;23.60;;;10.90;99.90;;;;;;5017408;28;20490;-71
2024/03/22 05:54:08;;;;;;;39.38;26.65;;;10.80;99.90;;;;;;5050711;28;20045;-71
2024/03/22 05:56:34;;;;;;;48.70;29.90;;;10.80;99.90;;;;;;5050447;28;20041;-71
2024/03/22 05:59:00;;;;;;;35.35;23.25;;;10.80;99.90;;;;;;5001226;28;20033;-71
2024/03/22 06:01:26;;;;;;;47.72;26.15;;;10.80;99.90;;;;;;5033334;28;20049;-71
2024/03/22 06:03:52;;;;;;;39.00;20.92;;;10.80;99.90;;;;;;5033689;28;20041;-72
2024/03/22 06:06:18;;;;;;;47.85;30.85;;;10.70;99.90;;;;;;5049777;28;20029;-71
2024/03/22 06:08:45;;;;;;;41.65;25.42;;;10.70;99.90;;;;;;5050357;28;20467;-71
2024/03/22 06:11:11;;;;;;;39.70;22.40;;;10.70;99.90;;;;;;5033819;28;20403;-72
2024/03/22 06:13:37;;;;;;;38.78;21.50;;;10.70;99.90;;;;;;5033419;28;20495;-71
2024/03/22 06:16:04;;;;;;;34.88;20.98;;;10.70;99.90;;;;;;5050358;28;20041;-71
2024/03/22 06:18:30;;;;;;;43.00;26.35;;;10.70;99.90;;;;;;5049979;28;20029;-72
2024/03/22 06:20:56;;;;;;;39.45;22.33;;;10.70;99.90;;;;;;5017088;28;20490;-71
2024/03/22 06:23:22;;;;;;;36.40;21.52;;;10.60;99.90;;;;;;5016862;28;20091;-71
2024/03/22 06:25:52;;;;;;;40.90;24.63;;;10.70;99.90;;;;;;5050022;28;20052;-71
2024/03/22 06:28:18;;;;;;;37.83;25.83;;;10.70;99.90;;;;;;5033351;28;20045;-72
2024/03/22 06:30:44;;;;;;;39.35;22.67;;;10.60;99.90;;;;;;5049490;28;20048;-71
2024/03/22 06:33:10;;;;;;;37.95;23.15;;;10.60;99.90;;;;;;5016783;28;20041;-72
2024/03/22 06:35:36;;;;;;;51.22;27.17;;;10.60;99.90;;;;;;5049676;28;20038;-72
2024/03/22 06:38:02;;;;;;;38.30;21.75;;;10.60;99.90;;;;;;5033224;28;20053;-71
2024/03/22 06:40:29;;;;;;;51.50;25.98;;;10.60;99.90;;;;;;5032632;28;20034;-71
2024/03/22 06:42:55;;;;;;;44.20;22.90;;;10.60;99.90;;;;;;5000376;28;20041;-71
2024/03/22 06:45:21;;;;;;;41.53;25.67;;;10.60;99.90;;;;;;5033152;28;20053;-71
2024/03/22 06:47:47;;;;;;;42.03;25.40;;;10.60;99.90;;;;;;5016506;28;20045;-71
2024/03/22 06:50:13;;;;;;;37.13;24.08;;;10.50;99.90;;;;;;5000253;28;20049;-71
2024/03/22 06:52:39;;;;;;;41.35;26.08;;;10.50;99.90;;;;;;5032812;28;20045;-71
2024/03/22 06:55:06;;;;;;;31.42;21.30;;;10.50;99.90;;;;;;5049522;28;20048;-72
2024/03/22 06:57:33;;;;;;;37.33;27.00;;;10.50;99.90;;;;;;5016138;28;20510;-71
2024/03/22 07:00:00;;;;;;;31.13;22.65;;;10.50;99.90;;;;;;5016279;28;20045;-72
2024/03/22 07:02:26;;;;;;;48.97;27.05;;;10.50;99.90;;;;;;5032827;28;20049;-71
2024/03/22 07:04:52;;;;;;;44.70;31.63;;;10.50;99.90;;;;;;5016134;28;20046;-71
2024/03/22 07:07:19;;;;;;;30.05;16.25;;;10.50;99.90;;;;;;5032768;28;20618;-71
2024/03/22 07:09:46;;;;;;;37.60;21.30;;;10.50;99.90;;;;;;5032401;28;20054;-72
2024/03/22 07:12:12;;;;;;;32.35;21.63;;;10.60;99.90;;;;;;5032540;28;20037;-71
2024/03/22 07:14:38;;;;;;;29.95;19.83;;;10.60;99.90;;;;;;5015852;28;20046;-71
2024/03/22 07:17:05;;;;;;;33.85;23.33;;;10.70;99.90;;;;;;5032516;28;20044;-71
2024/03/22 07:19:31;;;;;;;23.70;14.13;;;10.60;99.90;;;;;;5032326;28;20038;-71
2024/03/22 07:21:59;;;;;;;34.63;21.25;;;10.60;99.90;;;;;;5015963;28;20050;-72
2024/03/22 07:24:25;;;;;;;33.03;21.17;;;10.60;99.90;;;;;;5015751;28;20050;-71
2024/03/22 07:26:52;;;;;;;41.20;22.58;;;10.60;99.90;;;;;;5015647;28;20095;-71
2024/03/22 07:29:18;;;;;;;38.70;20.75;;;10.60;99.90;;;;;;5032364;28;20371;-71
2024/03/22 07:31:44;;;;;;;33.30;20.48;;;10.60;99.90;;;;;;5015308;28;20054;-71
2024/03/22 07:34:10;;;;;;;28.98;18.92;;;10.80;99.90;;;;;;5015864;28;20080;-71
2024/03/22 07:36:39;;;;;;;27.77;18.60;;;10.70;99.90;;;;;;5032034;28;20048;-71
2024/03/22 07:39:09;;;;;;;35.40;27.38;;;10.70;99.90;;;;;;5015844;28;20053;-71
2024/03/22 07:41:35;;;;;;;29.25;17.15;;;10.60;99.90;;;;;;4983526;28;20513;-71
2024/03/22 07:44:02;;;;;;;27.75;17.25;;;10.70;99.90;;;;;;4999013;28;20042;-71
2024/03/22 07:46:28;;;;;;;25.13;14.70;;;10.70;99.90;;;;;;5015369;28;20095;-71
2024/03/22 07:48:55;;;;;;;30.08;16.55;;;10.70;99.90;;;;;;5014159;28;20037;-71
2024/03/22 07:51:21;;;;;;;40.60;17.00;;;10.70;99.90;;;;;;5014952;28;20398;-71
2024/03/22 07:53:47;;;;;;;32.35;17.67;;;10.70;99.90;;;;;;5030814;28;20034;-71
2024/03/22 07:56:13;;;;;;;27.90;20.70;;;10.70;99.90;;;;;;5031834;28;20506;-71
2024/03/22 07:58:39;;;;;;;23.83;19.92;;;10.70;99.90;;;;;;5015114;28;20037;-71
2024/03/22 08:01:05;;;;;;;23.75;14.27;;;10.70;99.90;;;;;;4998855;28;20049;-71
2024/03/22 08:03:31;;;;;;;27.58;20.52;;;10.70;99.90;;;;;;5015273;28;20116;-71
2024/03/22 08:05:57;;;;;;;28.95;17.73;;;10.70;99.90;;;;;;5015085;28;20415;-71
2024/03/22 08:08:23;;;;;;;21.75;10.93;;;10.70;99.90;;;;;;5015075;28;20068;-71
2024/03/22 08:10:49;;;;;;;22.85;18.08;;;10.80;99.90;;;;;;5015025;28;20041;-71
2024/03/22 08:13:15;;;;;;;24.17;16.75;;;10.80;99.90;;;;;;5014822;28;20049;-71
2024/03/22 08:15:43;;;;;;;32.28;23.38;;;10.80;99.90;;;;;;5031249;28;20091;-71
2024/03/22 08:18:09;;;;;;;27.40;17.75;;;10.80;99.90;;;;;;5015109;28;20056;-71
2024/03/22 08:20:37;;;;;;;17.98;12.10;;;10.80;99.90;;;;;;5048030;28;20494;-71
2024/03/22 08:23:03;;;;;;;18.20;14.65;;;10.80;99.90;;;;;;5031175;28;20570;-71
2024/03/22 08:25:30;;;;;;;22.98;16.70;;;10.80;99.90;;;;;;5031237;28;20474;-71
2024/03/22 08:27:56;;;;;;;19.15;14.65;;;10.70;99.90;;;;;;5030980;28;20041;-71
2024/03/22 08:30:22;;;;;;;21.70;17.05;;;10.70;99.90;;;;;;5014726;28;20063;-71
2024/03/22 08:32:49;;;;;;;18.63;10.73;;;10.70;99.90;;;;;;5014370;28;20115;-71
2024/03/22 08:35:15;;;;;;;19.13;10.40;;;10.60;99.90;;;;;;5014680;28;20044;-71
2024/03/22 08:37:41;;;;;;;19.65;11.23;;;10.60;99.90;;;;;;5014591;28;20049;-71
2024/03/22 08:40:08;;;;;;;26.10;16.58;;;10.60;99.90;;;;;;5031132;28;20136;-71
2024/03/22 08:42:34;;;;;;;24.40;13.77;;;10.60;99.90;;;;;;5014577;28;20103;-71
2024/03/22 08:45:00;;;;;;;29.45;17.85;;;10.60;99.90;;;;;;5030972;28;20136;-71
2024/03/22 08:47:26;;;;;;;20.30;15.32;;;10.60;99.90;;;;;;5014837;28;20049;-72
2024/03/22 08:49:52;;;;;;;17.40;12.95;;;10.60;99.90;;;;;;4998113;28;20060;-71
2024/03/22 08:52:18;;;;;;;22.67;13.43;;;10.60;99.90;;;;;;5014336;28;20140;-71
2024/03/22 08:54:44;;;;;;;25.35;14.30;;;10.60;99.90;;;;;;5030813;28;20046;-71
2024/03/22 08:57:10;;;;;;;16.40;9.48;;;10.60;99.90;;;;;;5030954;28;20071;-71
2024/03/22 08:59:37;;;;;;;16.90;14.18;;;10.60;99.90;;;;;;5031085;28;20399;-71
2024/03/22 09:02:04;;;;;;;16.48;9.68;;;10.60;99.90;;;;;;5014535;28;20049;-72
2024/03/22 09:04:30;;;;;;;18.63;12.60;;;10.60;99.90;;;;;;5033810;28;20103;-71
2024/03/22 09:06:55;;;;;;;14.45;9.48;;;10.60;99.90;;;;;;5018338;28;20437;-71
2024/03/22 09:09:21;;;;;;;11.55;8.00;;;10.60;99.90;;;;;;5035007;28;20391;-72
2024/03/22 09:11:47;;;;;;;18.50;14.25;;;10.60;99.90;;;;;;5018129;28;20045;-71
2024/03/22 09:14:14;;;;;;;16.17;12.00;;;10.50;99.90;;;;;;5018288;28;20047;-71
2024/03/22 09:16:40;;;;;;;19.75;13.77;;;10.50;99.90;;;;;;5018401;28;20048;-71
2024/03/22 09:19:06;;;;;;;19.55;10.90;;;10.50;99.90;;;;;;5034599;28;20046;-71
2024/03/22 09:21:32;;;;;;;16.33;11.35;;;10.50;99.90;;;;;;5034726;28;20041;-72
2024/03/22 09:23:58;;;;;;;20.92;16.25;;;10.50;99.90;;;;;;5001873;28;20524;-72
2024/03/22 09:26:24;;;;;;;17.48;9.63;;;10.50;99.90;;;;;;5018091;28;20396;-72
2024/03/22 09:28:50;;;;;;;18.25;11.70;;;10.50;99.90;;;;;;5001616;28;20068;-72
2024/03/22 09:31:16;;;;;;;18.48;11.02;;;10.50;99.90;;;;;;5017920;28;20518;-72
2024/03/22 09:33:42;;;;;;;10.32;8.68;;;10.60;99.90;;;;;;5018006;28;20092;-72
2024/03/22 09:36:09;;;;;;;18.10;12.02;;;10.60;99.90;;;;;;5034406;28;20553;-72
2024/03/22 09:38:35;;;;;;;18.98;10.35;;;10.70;99.90;;;;;;5034503;28;20049;-72
2024/03/22 09:41:01;;;;;;;9.65;7.57;;;10.70;99.90;;;;;;5033894;28;20049;-72
2024/03/22 09:43:28;;;;;;;15.25;13.18;;;10.80;99.90;;;;;;5034310;28;20064;-72
2024/03/22 09:45:55;;;;;;;9.07;7.15;;;10.70;99.90;;;;;;5001490;28;20502;-72
2024/03/22 09:48:22;;;;;;;15.07;9.27;;;10.70;99.90;;;;;;5017820;28;20037;-72
2024/03/22 09:50:49;;;;;;;12.98;7.22;;;10.80;99.90;;;;;;5017771;28;20037;-72
2024/03/22 09:53:21;;;;;;;13.65;8.38;;;10.80;99.90;;;;;;5034051;28;20487;-72
2024/03/22 09:55:49;;;;;;;11.88;7.80;;;10.80;99.90;;;;;;5017578;28;20041;-72
2024/03/22 09:58:19;;;;;;;14.23;8.25;;;10.80;99.90;;;;;;5034241;28;20033;-72
2024/03/22 10:00:45;;;;;;;11.30;8.25;;;10.80;99.90;;;;;;5001056;28;20046;-72
2024/03/22 10:03:11;;;;;;;8.90;5.68;;;10.70;99.90;;;;;;5017298;28;20440;-72
2024/03/22 10:05:37;;;;;;;16.90;8.98;;;10.70;99.90;;;;;;5033868;28;20052;-72
2024/03/22 10:08:05;;;;;;;7.18;5.75;;;10.80;99.90;;;;;;5017191;28;20050;-72
2024/03/22 10:10:32;;;;;;;8.82;6.82;;;10.80;99.90;;;;;;5033790;28;20045;-72
2024/03/22 10:13:01;;;;;;;13.55;7.68;;;10.70;99.90;;;;;;5017158;28;20041;-72
2024/03/22 10:15:27;;;;;;;8.25;7.13;;;10.70;99.90;;;;;;5016594;28;20037;-72
2024/03/22 10:17:56;;;;;;;6.30;4.88;;;10.70;99.90;;;;;;5033630;28;20061;-73
2024/03/22 10:20:22;;;;;;;10.10;6.13;;;10.70;99.90;;;;;;5017092;28;20430;-75
2024/03/22 10:22:59;;;;;;;13.52;8.20;;;10.70;99.90;;;;;;5017124;28;20072;-73
2024/03/22 10:25:28;;;;;;;6.63;5.10;;;10.80;99.90;;;;;;5017098;28;20053;-72
2024/03/22 10:27:55;;;;;;;4.75;3.65;;;10.80;99.90;;;;;;5033366;28;20065;-72
2024/03/22 10:30:22;;;;;;;9.80;7.00;;;10.90;99.90;;;;;;5033525;28;20053;-73
2024/03/22 10:32:51;;;;;;;10.05;5.40;;;10.80;99.90;;;;;;5033206;28;20403;-72
2024/03/22 10:35:18;;;;;;;7.90;5.75;;;10.80;99.90;;;;;;5017154;28;20046;-72
2024/03/22 10:37:44;;;;;;;9.90;6.53;;;10.80;99.90;;;;;;5016762;28;20454;-72
2024/03/22 10:40:11;;;;;;;10.18;5.93;;;10.80;99.90;;;;;;5016378;28;20450;-72
2024/03/22 10:42:41;;;;;;;9.32;6.90;;;10.90;99.90;;;;;;5016651;28;20053;-73
2024/03/22 10:45:09;;;;;;;8.02;7.30;;;10.90;99.90;;;;;;5016907;28;20045;-72
2024/03/22 10:47:37;;;;;;;5.53;3.83;;;10.90;99.90;;;;;;5038223;28;20063;-72
2024/03/22 10:50:11;;;;;;;5.72;3.58;;;10.90;99.90;;;;;;5015884;28;20056;-72
2024/03/22 10:52:48;;;;;;;6.05;4.03;;;10.90;99.90;;;;;;5016719;28;20536;-72
2024/03/22 10:55:24;;;;;;;8.55;5.72;;;10.90;99.90;;;;;;5016307;28;20045;-72
2024/03/22 10:57:50;;;;;;;8.48;5.80;;;10.90;99.90;;;;;;5033013;28;20033;-72
2024/03/22 11:00:27;;;;;;;5.25;4.75;;;10.90;99.90;;;;;;5016197;28;20034;-72
2024/03/22 11:02:54;;;;;;;5.32;4.35;;;11.00;99.90;;;;;;5016453;28;20042;-73
2024/03/22 11:05:20;;;;;;;6.68;5.90;;;11.00;99.90;;;;;;5016165;28;20061;-73
2024/03/22 11:07:46;;;;;;;7.57;5.10;;;11.00;99.90;;;;;;5016229;28;20380;-72
2024/03/22 11:10:12;;;;;;;6.00;5.13;;;11.00;99.90;;;;;;5016270;28;20095;-73
2024/03/22 11:12:42;;;;;;;7.57;5.97;;;11.10;99.90;;;;;;5016208;28;20037;-72
2024/03/22 11:15:12;;;;;;;6.47;4.05;;;11.10;99.90;;;;;;5015972;28;20044;-73
2024/03/22 11:17:38;;;;;;;4.22;3.47;;;11.20;99.90;;;;;;5016083;28;20041;-72
2024/03/22 11:20:05;;;;;;;7.25;5.40;;;11.20;99.90;;;;;;5015936;28;20056;-73
2024/03/22 11:22:31;;;;;;;4.72;3.35;;;11.30;99.90;;;;;;5016045;28;20052;-73
2024/03/22 11:24:58;;;;;;;5.90;4.47;;;11.50;99.90;;;;;;5032658;28;20053;-73
2024/03/22 11:27:24;;;;;;;5.90;3.60;;;11.40;99.90;;;;;;5032210;28;20411;-72
2024/03/22 11:29:51;;;;;;;6.15;3.65;;;11.40;99.90;;;;;;5015994;28;20104;-73
2024/03/22 11:32:17;;;;;;;7.03;3.40;;;11.40;99.90;;;;;;5015519;28;20053;-72
2024/03/22 11:34:44;;;;;;;4.82;3.20;;;11.40;99.90;;;;;;5032390;28;20491;-73
2024/03/22 11:37:10;;;;;;;6.63;3.42;;;11.30;99.90;;;;;;5015563;28;20107;-72
2024/03/22 11:39:37;;;;;;;4.32;3.65;;;11.20;99.90;;;;;;5015686;28;20041;-72
2024/03/22 11:42:06;;;;;;;5.30;4.47;;;11.30;99.90;;;;;;5032130;28;20045;-72
2024/03/22 11:44:33;;;;;;;4.45;2.42;;;11.20;99.90;;;;;;5048688;28;20037;-72
2024/03/22 11:46:59;;;;;;;6.55;3.60;;;11.20;99.90;;;;;;5032108;28;20502;-73
2024/03/22 11:49:26;;;;;;;2.92;2.33;;;11.20;99.90;;;;;;5031729;28;20056;-72
2024/03/22 11:51:52;;;;;;;5.40;3.30;;;11.20;99.90;;;;;;5031850;28;20394;-72
2024/03/22 11:54:22;;;;;;;6.47;3.90;;;11.20;99.90;;;;;;4998824;28;20048;-72
2024/03/22 11:56:48;;;;;;;5.30;3.53;;;11.20;99.90;;;;;;5015340;28;20099;-73
2024/03/22 11:59:14;;;;;;;3.25;2.70;;;11.30;99.90;;;;;;5015098;28;20038;-73
2024/03/22 12:01:43;;;;;;;3.85;3.33;;;11.40;99.90;;;;;;5015294;28;20072;-73
2024/03/22 12:04:14;;;;;;;3.92;2.53;;;11.40;99.90;;;;;;5015093;28;20500;-73
2024/03/22 12:06:45;;;;;;;3.95;3.30;;;11.30;99.90;;;;;;5015970;28;20041;-73
2024/03/22 12:09:14;;;;;;;2.88;2.13;;;11.30;99.90;;;;;;5031440;28;20033;-72
2024/03/22 12:11:40;;;;;;;3.22;2.55;;;11.20;99.90;;;;;;5015242;28;20044;-72
2024/03/22 12:14:06;;;;;;;2.42;2.20;;;11.20;99.90;;;;;;4998713;28;20045;-73
2024/03/22 12:16:32;;;;;;;2.60;1.92;;;11.10;99.90;;;;;;5031347;28;20083;-72
2024/03/22 12:18:59;;;;;;;4.35;2.63;;;11.20;99.90;;;;;;4998532;28;20037;-73
2024/03/22 12:21:25;;;;;;;3.15;2.80;;;11.20;99.90;;;;;;5031185;28;20045;-72
2024/03/22 12:23:51;;;;;;;4.30;2.30;;;11.20;99.90;;;;;;5031317;28;20049;-73
2024/03/22 12:26:17;;;;;;;2.90;2.60;;;11.20;99.90;;;;;;5031253;28;20080;-72
2024/03/22 12:28:43;;;;;;;2.25;1.75;;;11.20;99.90;;;;;;4998437;28;20057;-72